Time;durP1;ratioP1;P1;durP2;ratioP2;P2;SDS_P1;SDS_P2;PMS_P1;PMS_P2;Temp;Humidity;BMP_temperature;BMP_pressure;BME280_temperature;BME280_humidity;BME280_pressure;Samples;Min_cycle;Max_cycle;Signal;HPM_P1;HPM_P2
2023/08/20 00:00:24;;;;;;;16.75;11.00;;;19.70;99.90;;;;;;4987731;28;20112;-78
2023/08/20 00:02:50;;;;;;;13.38;10.32;;;19.60;99.90;;;;;;5000742;28;20034;-78
2023/08/20 00:05:16;;;;;;;13.38;11.00;;;19.50;99.90;;;;;;5003297;28;20489;-78
2023/08/20 00:07:42;;;;;;;18.98;12.52;;;19.50;99.90;;;;;;5017115;28;20034;-79
2023/08/20 00:10:09;;;;;;;16.50;11.23;;;19.50;99.90;;;;;;5014974;28;20049;-78
2023/08/20 00:12:35;;;;;;;14.63;10.70;;;19.40;99.90;;;;;;5017010;28;20132;-78
2023/08/20 00:15:04;;;;;;;12.20;11.00;;;19.40;99.90;;;;;;5002905;28;20109;-78
2023/08/20 00:17:37;;;;;;;14.52;12.55;;;19.20;99.90;;;;;;5001308;28;20038;-79
2023/08/20 00:20:12;;;;;;;19.60;12.50;;;19.20;99.90;;;;;;4999058;28;20501;-78
2023/08/20 00:22:38;;;;;;;17.60;12.93;;;19.20;99.90;;;;;;4989310;28;20095;-80
2023/08/20 00:25:05;;;;;;;14.63;11.73;;;19.20;99.90;;;;;;4990572;28;20520;-79
2023/08/20 00:27:31;;;;;;;19.67;12.60;;;19.20;99.90;;;;;;5000704;28;20084;-77
2023/08/20 00:29:57;;;;;;;17.55;12.40;;;19.20;99.90;;;;;;5013575;28;20061;-78
2023/08/20 00:32:22;;;;;;;12.70;11.00;;;19.30;99.90;;;;;;5016603;28;20053;-77
2023/08/20 00:34:48;;;;;;;20.38;12.25;;;19.20;99.90;;;;;;5001629;28;20084;-77
2023/08/20 00:37:14;;;;;;;15.57;11.77;;;19.10;99.90;;;;;;5000107;28;20062;-77
2023/08/20 00:39:40;;;;;;;10.50;8.30;;;19.20;99.90;;;;;;5002839;28;20493;-78
2023/08/20 00:42:07;;;;;;;11.35;8.85;;;19.30;99.90;;;;;;4987114;28;20048;-78
2023/08/20 00:44:33;;;;;;;13.57;9.18;;;19.30;99.90;;;;;;5012982;28;20098;-78
2023/08/20 00:47:00;;;;;;;14.70;11.32;;;19.30;99.90;;;;;;4988836;28;20157;-78
2023/08/20 00:49:25;;;;;;;14.77;12.18;;;19.10;99.90;;;;;;4997852;28;20042;-78
2023/08/20 00:51:51;;;;;;;15.90;12.18;;;18.90;99.90;;;;;;5004299;28;20087;-79
2023/08/20 00:54:16;;;;;;;13.88;11.82;;;18.90;99.90;;;;;;5016488;28;20038;-80
2023/08/20 00:56:42;;;;;;;15.52;11.70;;;18.80;99.90;;;;;;5019363;28;20033;-79
2023/08/20 00:59:07;;;;;;;15.60;12.32;;;18.80;99.90;;;;;;5003982;28;20099;-79
2023/08/20 01:01:33;;;;;;;17.13;11.38;;;18.80;99.90;;;;;;4999076;28;20164;-77
2023/08/20 01:03:59;;;;;;;15.30;12.05;;;18.80;99.90;;;;;;5018321;28;20030;-78
2023/08/20 01:06:44;;;;;;;20.30;12.00;;;18.80;99.90;;;;;;5001549;28;20063;-78
2023/08/20 01:09:54;;;;;;;16.30;11.93;;;18.80;99.90;;;;;;5016103;28;20030;-79
2023/08/20 01:12:19;;;;;;;18.10;12.57;;;18.70;99.90;;;;;;5005727;28;20064;-78
2023/08/20 01:14:45;;;;;;;19.08;13.07;;;18.60;99.90;;;;;;5001299;28;20560;-79
2023/08/20 01:17:10;;;;;;;18.65;11.65;;;18.50;99.90;;;;;;4999548;28;20041;-78
2023/08/20 01:19:36;;;;;;;14.93;11.57;;;18.50;99.90;;;;;;5002903;28;20456;-78
2023/08/20 01:22:14;;;;;;;14.48;12.50;;;18.50;99.90;;;;;;4980718;28;20037;-79
2023/08/20 01:25:13;;;;;;;15.07;11.38;;;18.60;99.90;;;;;;5015444;28;20498;-78
2023/08/20 01:27:59;;;;;;;17.85;13.80;;;18.70;99.90;;;;;;5020164;28;20076;-79
2023/08/20 01:30:25;;;;;;;;;;;18.70;99.90;;;;;;5016019;28;20041;-78
2023/08/20 01:32:51;;;;;;;13.73;11.70;;;18.50;99.90;;;;;;5019601;28;19913;-77
2023/08/20 01:35:16;;;;;;;13.85;11.85;;;18.50;99.90;;;;;;4996754;28;20667;-78
2023/08/20 01:37:42;;;;;;;21.00;13.63;;;18.40;99.90;;;;;;5004321;28;20108;-78
2023/08/20 01:40:10;;;;;;;25.10;13.55;;;18.40;99.90;;;;;;5001935;28;20065;-77
2023/08/20 01:42:36;;;;;;;17.95;13.07;;;18.40;99.90;;;;;;5000166;28;20037;-79
2023/08/20 01:45:01;;;;;;;14.13;11.80;;;18.30;99.90;;;;;;5001649;28;20050;-76
2023/08/20 01:47:27;;;;;;;21.75;11.85;;;18.20;99.90;;;;;;5004504;28;20065;-78
2023/08/20 01:49:52;;;;;;;14.45;12.02;;;18.20;99.90;;;;;;4997971;28;20043;-77
2023/08/20 01:52:18;;;;;;;15.43;11.93;;;18.20;99.90;;;;;;5001461;28;20108;-79
2023/08/20 01:54:44;;;;;;;14.90;11.60;;;18.10;99.90;;;;;;5006189;28;20182;-78
2023/08/20 01:57:09;;;;;;;17.80;11.38;;;18.20;99.90;;;;;;5000626;28;20065;-77
2023/08/20 01:59:35;;;;;;;17.17;11.85;;;18.30;99.90;;;;;;5015838;28;20504;-78
2023/08/20 02:02:04;;;;;;;18.80;11.73;;;18.30;99.90;;;;;;5014115;28;20580;-77
2023/08/20 02:04:29;;;;;;;19.08;14.82;;;18.30;99.90;;;;;;5003764;28;20037;-78
2023/08/20 02:06:56;;;;;;;17.10;14.45;;;18.30;99.90;;;;;;5002302;28;20507;-78
2023/08/20 02:09:22;;;;;;;19.65;15.15;;;18.30;99.90;;;;;;5012206;28;20124;-78
2023/08/20 02:11:48;;;;;;;20.70;15.27;;;18.30;99.90;;;;;;4996676;28;20176;-77
2023/08/20 02:14:13;;;;;;;24.02;15.77;;;18.30;99.90;;;;;;4999073;28;20022;-78
2023/08/20 02:16:39;;;;;;;21.27;15.82;;;18.20;99.90;;;;;;5017379;28;20037;-77
2023/08/20 02:19:06;;;;;;;18.45;14.18;;;18.20;99.90;;;;;;5001434;28;20037;-77
2023/08/20 02:21:32;;;;;;;15.00;12.30;;;18.10;99.90;;;;;;5002267;28;20030;-77
2023/08/20 02:23:57;;;;;;;17.33;11.65;;;18.30;99.90;;;;;;5000464;28;21179;-77
2023/08/20 02:26:23;;;;;;;13.73;11.13;;;18.30;99.90;;;;;;4997534;28;20038;-77
2023/08/20 02:28:49;;;;;;;15.48;11.15;;;18.30;99.90;;;;;;5002041;28;20038;-77
2023/08/20 02:31:14;;;;;;;18.70;10.10;;;18.10;99.90;;;;;;5011064;28;20105;-77
2023/08/20 02:33:40;;;;;;;17.70;11.32;;;18.00;99.90;;;;;;4997696;28;20033;-77
2023/08/20 02:36:05;;;;;;;14.90;11.57;;;17.90;99.90;;;;;;4998657;28;20203;-79
2023/08/20 02:38:31;;;;;;;15.35;11.80;;;18.00;99.90;;;;;;5004569;28;20034;-79
2023/08/20 02:40:56;;;;;;;14.65;11.90;;;18.10;99.90;;;;;;5006131;28;20022;-79
2023/08/20 02:43:22;;;;;;;15.73;12.38;;;18.10;99.90;;;;;;5006062;28;20073;-79
2023/08/20 02:45:48;;;;;;;13.88;12.30;;;17.90;99.90;;;;;;5005221;28;20048;-78
2023/08/20 02:48:14;;;;;;;14.50;11.60;;;18.00;99.90;;;;;;4990775;28;20051;-78
2023/08/20 02:50:39;;;;;;;19.73;12.77;;;18.10;99.90;;;;;;5005078;28;20037;-77
2023/08/20 02:53:05;;;;;;;15.48;12.57;;;18.20;99.90;;;;;;5017882;28;20037;-78
2023/08/20 02:55:31;;;;;;;16.33;12.88;;;18.20;99.90;;;;;;4984983;28;20034;-78
2023/08/20 02:57:57;;;;;;;17.52;13.50;;;18.10;99.90;;;;;;4990058;28;20069;-78
2023/08/20 03:00:23;;;;;;;15.13;13.20;;;18.20;99.90;;;;;;5000467;28;20112;-78
2023/08/20 03:02:48;;;;;;;15.82;9.75;;;18.20;99.90;;;;;;5013287;28;20860;-79
2023/08/20 03:05:14;;;;;;;12.95;11.65;;;18.20;99.90;;;;;;5014696;28;20144;-78
2023/08/20 03:07:40;;;;;;;19.35;13.52;;;18.30;99.90;;;;;;4998560;28;20033;-77
2023/08/20 03:10:06;;;;;;;15.35;12.70;;;18.30;99.90;;;;;;4992477;28;20049;-79
2023/08/20 03:12:31;;;;;;;17.67;12.30;;;18.20;99.90;;;;;;5001299;28;20045;-79
2023/08/20 03:14:57;;;;;;;17.50;13.85;;;18.10;99.90;;;;;;5001758;28;20076;-77
2023/08/20 03:17:23;;;;;;;16.92;13.85;;;18.10;99.90;;;;;;4990635;28;20040;-77
2023/08/20 03:19:56;;;;;;;22.33;14.07;;;18.20;99.90;;;;;;5019460;28;20436;-77
2023/08/20 03:22:22;;;;;;;25.25;14.50;;;18.20;99.90;;;;;;4999871;28;20033;-77
2023/08/20 03:24:47;;;;;;;18.23;13.75;;;18.20;99.90;;;;;;4993898;28;20029;-78
2023/08/20 03:27:13;;;;;;;14.43;12.35;;;18.30;99.90;;;;;;4996507;28;20036;-76
2023/08/20 03:29:38;;;;;;;18.05;14.10;;;18.20;99.90;;;;;;4989893;28;20797;-77
2023/08/20 03:32:04;;;;;;;20.75;13.35;;;18.10;99.90;;;;;;5002707;28;20508;-76
2023/08/20 03:34:30;;;;;;;19.02;13.73;;;18.00;99.90;;;;;;5016929;28;20037;-77
2023/08/20 03:36:55;;;;;;;19.80;13.65;;;18.00;99.90;;;;;;4986423;28;20038;-77
2023/08/20 03:39:21;;;;;;;19.50;13.20;;;18.10;99.90;;;;;;5015026;28;20227;-77
2023/08/20 03:41:47;;;;;;;15.10;13.38;;;18.10;99.90;;;;;;5001938;28;20072;-77
2023/08/20 03:44:12;;;;;;;20.33;13.55;;;18.10;99.90;;;;;;5013325;28;20103;-78
2023/08/20 03:46:38;;;;;;;21.33;13.35;;;18.10;99.90;;;;;;5017071;28;20029;-77
2023/08/20 03:49:03;;;;;;;22.20;15.02;;;18.10;99.90;;;;;;5012696;28;20124;-78
2023/08/20 03:51:29;;;;;;;20.98;14.77;;;18.20;99.90;;;;;;5002925;28;20069;-78
2023/08/20 03:53:54;;;;;;;20.27;13.77;;;18.20;99.90;;;;;;5015176;28;20034;-77
2023/08/20 03:56:20;;;;;;;18.27;13.18;;;18.20;99.90;;;;;;4981666;28;20049;-78
2023/08/20 03:58:45;;;;;;;16.30;13.40;;;18.10;99.90;;;;;;5016108;28;20120;-76
2023/08/20 04:01:11;;;;;;;15.77;13.27;;;18.10;99.90;;;;;;4999271;28;20429;-77
2023/08/20 04:03:36;;;;;;;17.98;12.77;;;18.10;99.90;;;;;;4988348;28;20482;-78
2023/08/20 04:06:02;;;;;;;19.55;13.10;;;18.10;99.90;;;;;;5016469;28;20044;-77
2023/08/20 04:08:29;;;;;;;22.00;14.57;;;18.20;99.90;;;;;;4987943;28;20036;-77
2023/08/20 04:10:54;;;;;;;16.48;12.73;;;18.00;99.90;;;;;;4986681;28;20123;-78
2023/08/20 04:13:20;;;;;;;15.82;12.05;;;18.00;99.90;;;;;;5014746;28;20081;-77
2023/08/20 04:15:46;;;;;;;14.32;11.25;;;18.10;99.90;;;;;;5003332;28;20038;-77
2023/08/20 04:18:11;;;;;;;18.30;12.63;;;18.10;99.90;;;;;;4986685;28;20034;-77
2023/08/20 04:20:37;;;;;;;17.23;12.68;;;18.10;99.90;;;;;;5001859;28;20393;-77
2023/08/20 04:23:03;;;;;;;15.23;12.18;;;18.10;99.90;;;;;;4987057;28;20478;-77
2023/08/20 04:25:28;;;;;;;12.05;10.45;;;18.00;99.90;;;;;;4998911;28;20033;-78
2023/08/20 04:27:54;;;;;;;11.02;9.48;;;18.10;99.90;;;;;;4996051;28;20133;-78
2023/08/20 04:30:19;;;;;;;15.40;13.75;;;18.00;99.90;;;;;;4993599;28;20061;-76
2023/08/20 04:32:45;;;;;;;20.35;15.15;;;17.90;99.90;;;;;;5017653;28;20030;-77
2023/08/20 04:35:11;;;;;;;18.67;14.32;;;17.90;99.90;;;;;;5009745;28;20521;-78
2023/08/20 04:37:36;;;;;;;20.67;14.38;;;17.80;99.90;;;;;;5002987;28;20126;-76
2023/08/20 04:40:04;;;;;;;24.92;13.35;;;17.80;99.90;;;;;;5000150;28;20409;-78
2023/08/20 04:42:30;;;;;;;17.95;13.73;;;17.80;99.90;;;;;;5011544;28;20136;-77
2023/08/20 04:44:56;;;;;;;17.52;13.95;;;17.80;99.90;;;;;;5013534;28;20087;-77
2023/08/20 04:47:21;;;;;;;15.98;9.73;;;17.80;99.90;;;;;;5011055;28;20025;-77
2023/08/20 04:49:47;;;;;;;13.70;9.57;;;17.90;99.90;;;;;;5014356;28;20120;-77
2023/08/20 04:52:13;;;;;;;17.98;13.75;;;18.00;99.90;;;;;;5015781;28;20060;-77
2023/08/20 04:54:38;;;;;;;16.75;13.82;;;18.00;99.90;;;;;;5014335;28;20041;-77
2023/08/20 04:57:04;;;;;;;17.58;14.68;;;17.90;99.90;;;;;;4999455;28;24694;-77
2023/08/20 04:59:29;;;;;;;18.95;15.30;;;17.90;99.90;;;;;;4994984;28;20042;-77
2023/08/20 05:01:55;;;;;;;19.15;14.00;;;17.90;99.90;;;;;;5013674;28;20035;-77
2023/08/20 05:04:21;;;;;;;19.40;14.27;;;18.00;99.90;;;;;;4982537;28;20466;-78
2023/08/20 05:06:46;;;;;;;16.38;11.73;;;18.00;99.90;;;;;;5001125;28;20041;-77
2023/08/20 05:09:12;;;;;;;21.38;14.95;;;18.10;99.90;;;;;;4993862;28;20056;-77
2023/08/20 05:11:37;;;;;;;14.40;11.80;;;18.00;99.90;;;;;;4983422;28;20057;-77
2023/08/20 05:14:03;;;;;;;19.73;13.35;;;18.10;99.90;;;;;;5000906;28;20029;-77
2023/08/20 05:16:29;;;;;;;19.00;14.63;;;18.10;99.90;;;;;;4986427;28;20552;-78
2023/08/20 05:18:54;;;;;;;20.77;16.55;;;18.10;99.90;;;;;;4996696;28;20029;-77
2023/08/20 05:21:20;;;;;;;24.88;16.52;;;18.10;99.90;;;;;;5012899;28;20457;-77
2023/08/20 05:23:45;;;;;;;21.90;17.38;;;18.10;99.90;;;;;;4999709;28;20363;-78
2023/08/20 05:26:11;;;;;;;23.92;17.85;;;18.10;99.90;;;;;;5000810;28;20057;-78
2023/08/20 05:28:36;;;;;;;20.35;16.20;;;18.10;99.90;;;;;;5013172;28;20335;-77
2023/08/20 05:31:02;;;;;;;22.20;16.35;;;18.20;99.90;;;;;;4998079;28;20375;-77
2023/08/20 05:33:27;;;;;;;14.98;12.95;;;18.30;99.90;;;;;;4981924;28;20512;-77
2023/08/20 05:35:53;;;;;;;23.92;17.30;;;18.30;99.90;;;;;;4986728;28;20034;-77
2023/08/20 05:38:19;;;;;;;28.20;19.15;;;18.50;99.90;;;;;;4989654;28;20393;-77
2023/08/20 05:40:44;;;;;;;28.42;19.55;;;18.50;99.90;;;;;;5005657;28;20057;-78
2023/08/20 05:43:10;;;;;;;34.80;22.83;;;18.50;99.90;;;;;;5016995;28;20022;-76
2023/08/20 05:45:35;;;;;;;30.17;21.95;;;18.60;99.90;;;;;;5013281;28;20443;-77
2023/08/20 05:48:01;;;;;;;33.15;21.40;;;18.70;99.90;;;;;;5000423;28;20057;-76
2023/08/20 05:50:26;;;;;;;28.98;21.52;;;18.80;99.90;;;;;;5002656;28;20532;-76
2023/08/20 05:52:52;;;;;;;23.85;17.45;;;18.80;99.90;;;;;;5005702;28;20038;-76
2023/08/20 05:55:18;;;;;;;36.67;23.60;;;18.90;99.90;;;;;;5017027;28;20054;-76
2023/08/20 05:57:43;;;;;;;45.53;27.77;;;19.00;99.90;;;;;;5004072;28;20037;-77
2023/08/20 06:00:10;;;;;;;38.53;24.38;;;19.20;99.90;;;;;;5016161;28;20040;-77
2023/08/20 06:02:36;;;;;;;43.00;25.48;;;19.20;99.90;;;;;;5000519;28;20556;-76
2023/08/20 06:05:04;;;;;;;40.22;25.95;;;19.30;99.90;;;;;;4999603;28;20390;-76
2023/08/20 06:07:30;;;;;;;43.83;27.25;;;19.40;99.90;;;;;;5015239;28;20057;-76
2023/08/20 06:09:56;;;;;;;35.55;24.73;;;19.50;99.90;;;;;;4999946;28;20560;-78
2023/08/20 06:12:22;;;;;;;24.20;16.58;;;19.60;99.90;;;;;;5002689;28;20437;-77
2023/08/20 06:14:48;;;;;;;32.58;21.23;;;19.80;99.90;;;;;;4995849;28;20037;-79
2023/08/20 06:17:13;;;;;;;36.88;24.65;;;19.90;99.90;;;;;;5015510;28;20029;-79
2023/08/20 06:19:39;;;;;;;23.15;18.30;;;20.00;99.90;;;;;;5015255;28;20036;-77
2023/08/20 06:22:04;;;;;;;32.97;20.02;;;20.10;99.90;;;;;;5002629;28;20037;-77
2023/08/20 06:24:30;;;;;;;30.52;20.83;;;20.20;99.90;;;;;;5017908;28;20032;-76
2023/08/20 06:26:55;;;;;;;32.83;19.55;;;20.30;99.90;;;;;;5017085;28;20543;-79
2023/08/20 06:29:21;;;;;;;28.25;19.10;;;20.40;99.90;;;;;;5022667;28;20091;-78
2023/08/20 06:31:48;;;;;;;23.42;17.45;;;20.50;99.90;;;;;;5018581;28;20037;-79
2023/08/20 06:34:14;;;;;;;24.17;19.10;;;20.60;99.90;;;;;;5019155;28;20045;-79
2023/08/20 06:36:39;;;;;;;14.65;12.00;;;20.80;99.90;;;;;;5000237;28;20152;-78
2023/08/20 06:39:05;;;;;;;25.50;18.23;;;21.00;99.90;;;;;;5017167;28;20132;-76
2023/08/20 06:41:30;;;;;;;25.10;17.73;;;21.00;99.90;;;;;;5001738;28;20036;-79
2023/08/20 06:43:56;;;;;;;13.50;10.95;;;21.10;99.90;;;;;;5015518;28;20041;-79
2023/08/20 06:46:21;;;;;;;17.80;15.20;;;21.20;99.90;;;;;;5000228;28;20406;-77
2023/08/20 06:48:47;;;;;;;22.35;17.33;;;21.30;99.90;;;;;;4994265;28;20030;-77
2023/08/20 06:51:13;;;;;;;18.58;15.48;;;21.50;99.90;;;;;;5002690;28;20038;-77
2023/08/20 06:53:40;;;;;;;25.83;17.90;;;21.60;99.90;;;;;;5001358;28;20159;-77
2023/08/20 06:56:09;;;;;;;20.00;16.60;;;21.70;99.90;;;;;;4997988;28;20041;-77
2023/08/20 06:58:39;;;;;;;16.80;13.55;;;21.90;99.90;;;;;;5016223;28;20042;-78
2023/08/20 07:01:07;;;;;;;18.27;13.45;;;22.00;99.90;;;;;;4997293;28;20098;-78
2023/08/20 07:03:43;;;;;;;22.75;15.10;;;22.20;99.90;;;;;;5012201;28;20080;-78
2023/08/20 07:06:11;;;;;;;23.80;16.60;;;22.30;99.90;;;;;;4985340;28;20819;-79
2023/08/20 07:08:40;;;;;;;20.73;16.67;;;22.50;99.90;;;;;;4988718;28;20033;-79
2023/08/20 07:11:06;;;;;;;18.38;15.63;;;22.60;99.90;;;;;;5020384;28;20038;-79
2023/08/20 07:13:31;;;;;;;20.55;14.13;;;22.70;99.90;;;;;;5000437;28;20084;-79
2023/08/20 07:15:57;;;;;;;17.60;12.52;;;22.90;99.90;;;;;;5003250;28;20026;-80
2023/08/20 07:18:22;;;;;;;9.82;8.70;;;22.90;99.90;;;;;;4983992;28;20152;-79
2023/08/20 07:20:49;;;;;;;8.50;7.70;;;23.10;99.90;;;;;;5020803;28;20037;-79
2023/08/20 07:23:14;;;;;;;20.38;15.50;;;23.20;99.90;;;;;;4987323;28;20041;-79
2023/08/20 07:25:40;;;;;;;21.58;14.07;;;23.40;99.90;;;;;;5014368;28;20045;-80
2023/08/20 07:28:09;;;;;;;20.33;13.23;;;23.60;99.90;;;;;;5013779;28;20434;-79
2023/08/20 07:30:35;;;;;;;19.55;14.05;;;23.80;99.90;;;;;;5001939;28;20576;-80
2023/08/20 07:33:01;;;;;;;16.10;12.35;;;23.90;99.90;;;;;;5003102;28;20037;-80
2023/08/20 07:35:26;;;;;;;12.00;7.70;;;24.00;99.90;;;;;;5001292;28;20064;-80
2023/08/20 07:37:52;;;;;;;10.25;9.25;;;24.10;99.90;;;;;;5017632;28;20616;-79
2023/08/20 07:40:18;;;;;;;16.08;11.65;;;24.20;99.90;;;;;;5014085;28;20038;-81
2023/08/20 07:42:43;;;;;;;16.55;12.07;;;24.40;99.90;;;;;;5004147;28;20053;-78
2023/08/20 07:45:09;;;;;;;7.53;6.78;;;24.50;99.90;;;;;;4998921;28;20397;-82
2023/08/20 07:47:38;;;;;;;7.55;6.70;;;24.60;99.90;;;;;;5000636;28;20029;-80
2023/08/20 07:50:04;;;;;;;8.18;6.15;;;24.90;99.90;;;;;;5012908;28;20061;-79
2023/08/20 07:52:30;;;;;;;18.63;13.52;;;25.10;99.90;;;;;;4989208;28;20051;-79
2023/08/20 07:54:56;;;;;;;12.80;9.80;;;25.20;99.90;;;;;;5033624;28;20496;-79
2023/08/20 07:57:23;;;;;;;7.28;6.22;;;25.30;99.90;;;;;;4989489;28;20179;-78
2023/08/20 07:59:49;;;;;;;8.10;7.32;;;25.40;99.90;;;;;;5014523;28;20116;-78
2023/08/20 08:02:14;;;;;;;11.30;10.05;;;25.50;99.90;;;;;;5017019;28;20057;-81
2023/08/20 08:04:40;;;;;;;9.90;7.65;;;25.60;99.90;;;;;;5014720;28;20029;-81
2023/08/20 08:07:05;;;;;;;13.93;11.15;;;25.80;99.90;;;;;;5001206;28;20029;-79
2023/08/20 08:09:31;;;;;;;12.10;8.98;;;25.80;99.90;;;;;;5015491;28;20042;-79
2023/08/20 08:11:57;;;;;;;15.05;11.50;;;26.00;99.90;;;;;;5005620;28;20091;-80
2023/08/20 08:14:23;;;;;;;18.55;12.57;;;26.30;99.90;;;;;;5019664;28;20037;-80
2023/08/20 08:16:49;;;;;;;14.10;12.15;;;26.40;99.90;;;;;;5003484;28;20052;-78
2023/08/20 08:19:14;;;;;;;15.05;11.70;;;26.60;99.90;;;;;;4997062;28;20113;-79
2023/08/20 08:21:41;;;;;;;12.95;10.18;;;26.70;99.90;;;;;;5017287;28;20083;-79
2023/08/20 08:24:06;;;;;;;11.68;9.93;;;26.90;99.90;;;;;;5016787;28;20125;-79
2023/08/20 08:26:33;;;;;;;14.00;8.77;;;27.00;99.90;;;;;;4982031;28;20514;-79
2023/08/20 08:28:59;;;;;;;13.27;9.80;;;26.90;99.90;;;;;;5017908;28;20445;-79
2023/08/20 08:31:24;;;;;;;11.98;10.65;;;27.30;99.90;;;;;;4999885;28;20034;-79
2023/08/20 08:33:50;;;;;;;10.55;9.25;;;27.50;99.90;;;;;;5000022;28;20025;-79
2023/08/20 08:36:16;;;;;;;9.95;8.95;;;27.60;99.90;;;;;;5019056;28;20069;-79
2023/08/20 08:38:43;;;;;;;11.35;9.70;;;27.70;99.90;;;;;;4987515;28;20042;-79
2023/08/20 08:41:10;;;;;;;9.50;7.65;;;27.90;99.90;;;;;;4997303;28;20057;-78
2023/08/20 08:43:37;;;;;;;9.05;7.30;;;28.10;99.90;;;;;;4988228;28;20057;-78
2023/08/20 08:46:03;;;;;;;5.82;5.13;;;28.20;99.90;;;;;;5004349;28;20029;-79
2023/08/20 08:48:28;;;;;;;9.10;6.15;;;28.20;99.90;;;;;;4997369;28;20041;-79
2023/08/20 08:50:54;;;;;;;6.13;5.53;;;28.40;99.90;;;;;;5002471;28;20539;-80
2023/08/20 08:53:19;;;;;;;6.05;5.25;;;28.50;99.90;;;;;;4990271;28;20375;-79
2023/08/20 08:55:45;;;;;;;7.80;5.93;;;28.60;99.90;;;;;;5005950;28;20025;-79
2023/08/20 08:58:10;;;;;;;7.10;6.13;;;28.90;99.90;;;;;;4988884;28;20044;-79
2023/08/20 09:00:37;;;;;;;5.90;5.40;;;29.00;99.90;;;;;;4986988;28;20066;-78
2023/08/20 09:03:03;;;;;;;5.70;4.72;;;29.20;99.90;;;;;;5001792;28;20034;-78
2023/08/20 09:05:28;;;;;;;4.95;4.45;;;29.50;99.90;;;;;;5021869;28;20056;-78
2023/08/20 09:08:00;;;;;;;7.93;5.28;;;30.00;99.90;;;;;;5002630;28;20076;-79
2023/08/20 09:10:27;;;;;;;10.02;4.78;;;30.00;99.90;;;;;;5017212;28;20037;-79
2023/08/20 09:12:54;;;;;;;5.07;4.15;;;30.20;99.90;;;;;;5006835;28;20034;-80
2023/08/20 09:15:19;;;;;;;5.85;4.80;;;30.40;99.90;;;;;;5022919;28;20429;-81
2023/08/20 09:17:46;;;;;;;6.00;5.13;;;30.60;99.90;;;;;;5009453;28;20200;-80
2023/08/20 09:20:11;;;;;;;5.88;4.55;;;30.70;99.90;;;;;;5012888;28;20368;-80
2023/08/20 09:22:37;;;;;;;5.25;4.30;;;31.10;99.90;;;;;;5008942;28;20029;-81
2023/08/20 09:25:03;;;;;;;5.22;4.75;;;31.60;99.90;;;;;;5009808;28;20042;-82
2023/08/20 09:27:28;;;;;;;5.63;4.25;;;31.70;99.90;;;;;;5008601;28;20025;-81
2023/08/20 09:29:55;;;;;;;4.88;4.40;;;31.50;99.90;;;;;;5018799;28;20037;-81
2023/08/20 09:32:24;;;;;;;4.78;4.38;;;31.80;99.90;;;;;;5019753;28;20045;-83
2023/08/20 09:34:51;;;;;;;4.60;4.20;;;32.00;99.90;;;;;;5005852;28;20045;-83
2023/08/20 09:37:18;;;;;;;4.90;3.97;;;32.30;99.90;;;;;;5008185;28;20053;-83
2023/08/20 09:39:44;;;;;;;5.40;4.70;;;32.90;99.90;;;;;;5026003;28;20038;-84
2023/08/20 09:42:10;;;;;;;5.82;5.22;;;33.00;99.90;;;;;;4989295;28;20033;-83
2023/08/20 09:44:41;;;;;;;6.88;5.45;;;33.10;99.90;;;;;;5006427;28;20040;-85
2023/08/20 09:47:14;;;;;;;7.63;6.93;;;33.20;99.90;;;;;;5005353;28;20049;-85
2023/08/20 09:49:46;;;;;;;6.47;5.88;;;33.10;99.90;;;;;;4990002;28;20397;-86
2023/08/20 09:52:27;;;;;;;7.88;6.40;;;33.20;99.50;;;;;;5006876;28;20029;-86
2023/08/20 09:55:11;;;;;;;10.38;8.05;;;33.00;98.10;;;;;;5027804;28;20413;-86
2023/08/20 09:57:38;;;;;;;7.53;5.88;;;32.90;98.80;;;;;;5011657;28;20045;-86
2023/08/20 10:00:05;;;;;;;9.05;6.78;;;32.80;99.10;;;;;;4999195;28;20405;-86
2023/08/20 10:02:32;;;;;;;8.93;7.03;;;32.70;99.20;;;;;;5003081;28;20516;-86
2023/08/20 10:05:09;;;;;;;10.00;7.57;;;32.90;97.80;;;;;;5020522;28;20034;-86
2023/08/20 10:07:35;;;;;;;6.45;5.75;;;32.90;96.20;;;;;;5017661;28;20029;-87
2023/08/20 10:10:05;;;;;;;6.55;5.88;;;33.00;97.30;;;;;;4990088;28;20366;-87
2023/08/20 10:12:31;;;;;;;8.10;5.95;;;33.00;97.20;;;;;;4991509;28;20041;-86
2023/08/20 10:14:57;;;;;;;6.18;5.40;;;33.00;96.50;;;;;;4992588;28;20038;-87
2023/08/20 10:17:23;;;;;;;10.43;6.40;;;33.00;96.60;;;;;;4989597;28;20460;-87
2023/08/20 10:19:49;;;;;;;7.30;5.43;;;33.10;96.80;;;;;;5000029;28;20037;-85
2023/08/20 10:22:14;;;;;;;6.85;5.18;;;33.10;95.90;;;;;;5004654;28;20040;-85
2023/08/20 10:24:41;;;;;;;7.47;5.63;;;33.00;96.30;;;;;;4986731;28;20045;-86
2023/08/20 10:27:08;;;;;;;6.18;5.53;;;33.00;95.70;;;;;;5017679;28;20045;-86
2023/08/20 10:29:36;;;;;;;5.88;4.63;;;33.00;95.40;;;;;;4994638;28;20523;-85
2023/08/20 10:32:08;;;;;;;6.03;4.90;;;33.00;95.60;;;;;;5019283;28;20410;-84
2023/08/20 10:34:35;;;;;;;6.32;5.70;;;33.00;96.00;;;;;;5013656;28;20033;-85
2023/08/20 10:37:09;;;;;;;7.38;5.32;;;33.00;95.60;;;;;;4990004;28;20046;-85
2023/08/20 10:39:35;;;;;;;6.15;5.25;;;33.00;95.30;;;;;;4988857;28;20746;-84
2023/08/20 10:42:19;;;;;;;5.82;5.28;;;33.20;95.40;;;;;;4999769;28;20045;-85
2023/08/20 10:45:08;;;;;;;6.78;5.85;;;33.30;95.10;;;;;;5030763;28;20476;-84
2023/08/20 10:47:36;;;;;;;7.18;5.93;;;33.40;94.40;;;;;;5005348;28;20285;-86
2023/08/20 10:50:02;;;;;;;4.72;4.30;;;33.40;94.90;;;;;;5019759;28;20030;-86
2023/08/20 10:52:28;;;;;;;6.18;5.57;;;33.40;94.90;;;;;;5002728;28;20026;-85
2023/08/20 10:54:54;;;;;;;7.13;6.43;;;33.60;94.70;;;;;;4988783;28;20112;-82
2023/08/20 10:57:21;;;;;;;13.90;9.57;;;33.60;93.90;;;;;;4988652;28;20481;-82
2023/08/20 10:59:58;;;;;;;9.55;8.23;;;33.80;93.30;;;;;;5004142;28;20065;-82
2023/08/20 11:02:24;;;;;;;9.50;8.55;;;33.80;92.60;;;;;;5016657;28;20029;-82
2023/08/20 11:04:49;;;;;;;8.85;6.75;;;34.00;93.40;;;;;;4989911;28;20029;-81
2023/08/20 11:07:17;;;;;;;11.07;8.80;;;34.10;93.90;;;;;;4999169;28;20060;-80
2023/08/20 11:09:44;;;;;;;9.80;8.85;;;34.30;93.20;;;;;;4985269;28;20046;-81
2023/08/20 11:12:10;;;;;;;7.13;6.30;;;34.40;93.50;;;;;;5015815;28;20436;-81
2023/08/20 11:14:35;;;;;;;10.35;7.85;;;34.60;92.60;;;;;;4996431;28;20034;-81
2023/08/20 11:17:01;;;;;;;14.90;11.85;;;34.70;91.50;;;;;;4999979;28;20045;-81
2023/08/20 11:19:28;;;;;;;11.20;8.63;;;34.90;91.70;;;;;;5000176;28;20040;-81
2023/08/20 11:21:54;;;;;;;13.13;11.73;;;34.90;92.10;;;;;;4986744;28;20113;-80
2023/08/20 11:24:20;;;;;;;14.27;12.55;;;34.90;92.10;;;;;;5001126;28;20120;-80
2023/08/20 11:26:46;;;;;;;15.15;12.43;;;34.80;91.90;;;;;;4998931;28;20044;-78
2023/08/20 11:29:20;;;;;;;16.98;14.43;;;34.80;91.30;;;;;;4985823;28;20041;-81
2023/08/20 11:31:46;;;;;;;14.23;12.82;;;34.70;91.10;;;;;;4986479;28;20032;-80
2023/08/20 11:34:12;;;;;;;15.25;12.70;;;34.70;90.90;;;;;;5003152;28;20033;-81
2023/08/20 11:36:39;;;;;;;14.80;12.68;;;34.70;91.00;;;;;;5015341;28;20112;-81
2023/08/20 11:39:05;;;;;;;15.93;13.13;;;34.70;90.80;;;;;;5003523;28;20544;-80
2023/08/20 11:41:30;;;;;;;17.25;15.45;;;34.80;91.00;;;;;;5002315;28;20069;-80
2023/08/20 11:43:56;;;;;;;16.95;15.13;;;34.80;90.00;;;;;;5004375;28;20124;-81
2023/08/20 11:46:23;;;;;;;19.77;15.15;;;35.00;88.50;;;;;;5015146;28;20056;-81
2023/08/20 11:49:03;;;;;;;17.50;15.80;;;35.20;87.60;;;;;;4993942;28;20036;-81
2023/08/20 11:51:36;;;;;;;20.92;15.20;;;35.20;86.30;;;;;;5022032;28;20390;-80
2023/08/20 11:54:03;;;;;;;11.32;10.18;;;35.10;87.70;;;;;;5019244;28;20045;-80
2023/08/20 11:56:29;;;;;;;10.63;9.70;;;35.00;88.50;;;;;;5018557;28;20036;-80
2023/08/20 11:58:59;;;;;;;12.55;11.20;;;34.80;89.50;;;;;;4998528;28;20038;-81
2023/08/20 12:01:24;;;;;;;12.52;10.70;;;34.70;88.40;;;;;;5004985;28;20049;-82
2023/08/20 12:03:50;;;;;;;8.73;7.82;;;34.70;86.70;;;;;;5004469;28;20037;-83
2023/08/20 12:06:19;;;;;;;14.02;9.18;;;34.50;87.40;;;;;;5001998;28;20029;-80
2023/08/20 12:08:45;;;;;;;11.25;10.25;;;34.40;87.50;;;;;;5014207;28;20032;-81
2023/08/20 12:11:10;;;;;;;9.95;9.00;;;34.40;85.40;;;;;;4985767;28;20042;-81
2023/08/20 12:13:36;;;;;;;12.45;8.43;;;34.40;85.40;;;;;;5001687;28;20081;-80
2023/08/20 12:16:01;;;;;;;8.35;6.22;;;34.40;86.70;;;;;;4989489;28;20037;-81
2023/08/20 12:18:27;;;;;;;8.43;6.80;;;34.50;87.40;;;;;;4984442;28;20497;-83
2023/08/20 12:20:52;;;;;;;9.40;7.13;;;34.70;88.10;;;;;;5001270;28;20041;-81
2023/08/20 12:23:18;;;;;;;7.55;6.63;;;34.70;85.00;;;;;;5017797;28;20507;-81
2023/08/20 12:25:49;;;;;;;11.10;6.93;;;34.70;86.60;;;;;;5017040;28;20604;-81
2023/08/20 12:28:14;;;;;;;9.85;8.82;;;34.70;86.60;;;;;;4988741;28;20379;-81
2023/08/20 12:30:40;;;;;;;7.35;6.50;;;34.90;81.30;;;;;;4652710;28;9999667;-81